Details From KOXR - Oxnard
To KSBA - Santa Barbara Mun
Flight Number -
Tags Decoded
Created
Modified
Stats Distance 61 nm / 112 km
Max Altitude 0 ft / 0 m
Waypoints 5
Social Downloads 3
Likes 0
Share VATSIM

Download

Looking for another format? Having issues loading an existing format? Contact us
Advertisement - Login to hide

Notes

Decoded

Route

KOXR DEANO GOLET HABUT KSBA

ID Type Via Altitude Latitude Longitude Leg Dist Tot Dist Heading (true) Name
O KOXR APT - 0 ft / 0 m 34.20089˚ -119.21710˚ - 0 nm - -
DEANO FIX - 0 ft / 0 m 34.31667˚ -119.41644˚ 12 nm 12 nm 305° / 305° -
GOLET FIX - 0 ft / 0 m 34.28136˚ -119.86439˚ 22 nm 34 nm 265° / 264° -
HABUT FIX - 0 ft / 0 m 34.42228˚ -120.08889˚ 13 nm 48 nm 307° / 307° -
O KSBA APT - 0 ft / 0 m 34.43077˚ -119.84036˚ 12 nm 60 nm 88° / 88° Santa Barbara Mun

Altitude Profile

Advertisement - Login to hide

KOXR

Details ICAO KOXR (OXR)
Name Oxnard
Region United States
Timezone America/Los_Angeles (UTC-8.0)
Stats Elevation 43 ft / 13 m (AMSL)
Location 34.200819° -119.207233°
Runways 1
Magnetic Variation 12.211° E

METAR

KOXR 131451Z 06004KT 10SM FU CLR 15/M13 A3001 RMK AO2 SLP163 T01501133 53005

Decode

TAF

TAF KOXR 131147Z 1312/1412 VRB03KT 6SM FU SKC FM131300 06008KT 6SM FU SKC FM132100 28008KT 6SM FU SKC FM140300 VRB03KT 6SM FU SKC

Decode

Departure Runways

ID Width Length Bearing (true) Bearing (mag) Surface Threshold Offset Overrun Length
07 98 ft / 30 m 5,953 ft / 1,815 m 90.53° 78.32° Asphalt 0 ft / 0 m 0 ft / 0 m
25 98 ft / 30 m 5,953 ft / 1,815 m 270.54° 258.33° Asphalt 1,378 ft / 420 m 0 ft / 0 m

KSBA

Details ICAO KSBA (SBA)
Name Santa Barbara Mun
Region United States
Timezone America/Los_Angeles (UTC-8.0)
Stats Elevation 13 ft / 4 m (AMSL)
Location 34.425961° -119.840724°
Runways 3
Magnetic Variation 12.372° E

METAR

KSBA 131453Z 00000KT 5SM FU CLR 02/M06 A3001 RMK AO2 SLP162 T00171056 53003

Decode

TAF

KSBA 131147Z 1312/1412 VRB03KT 5SM FU SCT035 FM131700 16006KT 5SM FU BKN045 FM132000 23007KT 6SM FU BKN045 FM140300 VRB03KT 6SM FU BKN045

Decode

Destination Runways

ID Width Length Bearing (true) Bearing (mag) Surface Threshold Offset Overrun Length
07 151 ft / 46 m 6,047 ft / 1,843 m 88.54° 76.17° Asphalt 0 ft / 0 m 0 ft / 0 m
15L 75 ft / 23 m 4,182 ft / 1,275 m 165.71° 153.34° Asphalt 217 ft / 66 m 0 ft / 0 m
15R 98 ft / 30 m 4,186 ft / 1,276 m 165.71° 153.34° Asphalt 0 ft / 0 m 0 ft / 0 m
25 151 ft / 46 m 6,047 ft / 1,843 m 268.55° 256.18° Asphalt 0 ft / 0 m 0 ft / 0 m
33L 98 ft / 30 m 4,186 ft / 1,276 m 345.71° 333.34° Asphalt 0 ft / 0 m 0 ft / 0 m
33R 75 ft / 23 m 4,182 ft / 1,275 m 345.72° 333.35° Asphalt 0 ft / 0 m 0 ft / 0 m

Approach Navaids

Runway Type Ident Frequency Range Bearing (true) Bearing (mag) Slope Elevation
07 Localiser ISBA 110.30 MHz 18 nm / 33 km 88.51° 76.14° - 16 ft / 5 m (AMSL)
07 Glidescope ISBA 110.30 MHz 10 nm / 19 km 89.00° 76.63° 3.00° 13 ft / 4 m (AMSL)
07 DME ISBA 110.30 MHz 18 nm / 33 km - - - 29 ft / 9 m (AMSL)

Popular Alternatives